sensor_id;sensor_type;location;lat;lon;timestamp;temperature;humidity
2873;DHT22;1444;49.166;7.312;2023-07-16T00:11:18;19.00;99.90
2873;DHT22;1444;49.166;7.312;2023-07-16T00:16:13;19.00;99.90
2873;DHT22;1444;49.166;7.312;2023-07-16T00:18:41;19.10;99.90
2873;DHT22;1444;49.166;7.312;2023-07-16T00:21:08;19.00;99.90
2873;DHT22;1444;49.166;7.312;2023-07-16T00:23:35;19.00;99.90
2873;DHT22;1444;49.166;7.312;2023-07-16T00:26:02;19.00;99.90
2873;DHT22;1444;49.166;7.312;2023-07-16T00:28:31;18.60;99.90
2873;DHT22;1444;49.166;7.312;2023-07-16T00:33:25;18.70;99.90
2873;DHT22;1444;49.166;7.312;2023-07-16T00:38:19;18.60;99.90
2873;DHT22;1444;49.166;7.312;2023-07-16T00:45:45;18.40;99.90
2873;DHT22;1444;49.166;7.312;2023-07-16T00:48:13;18.50;99.90
2873;DHT22;1444;49.166;7.312;2023-07-16T00:53:08;18.40;99.90
2873;DHT22;1444;49.166;7.312;2023-07-16T00:58:04;18.30;99.90
2873;DHT22;1444;49.166;7.312;2023-07-16T01:03:00;18.20;99.90
2873;DHT22;1444;49.166;7.312;2023-07-16T01:08:03;20.30;99.90
2873;DHT22;1444;49.166;7.312;2023-07-16T01:10:31;18.20;99.90
2873;DHT22;1444;49.166;7.312;2023-07-16T01:20:21;18.10;99.90
2873;DHT22;1444;49.166;7.312;2023-07-16T01:28:54;18.00;99.90
2873;DHT22;1444;49.166;7.312;2023-07-16T01:33:56;18.00;99.90
2873;DHT22;1444;49.166;7.312;2023-07-16T01:36:24;18.00;99.90
2873;DHT22;1444;49.166;7.312;2023-07-16T01:48:42;18.10;99.90
2873;DHT22;1444;49.166;7.312;2023-07-16T02:23:07;17.70;99.90
2873;DHT22;1444;49.166;7.312;2023-07-16T02:57:30;17.60;99.90
2873;DHT22;1444;49.166;7.312;2023-07-16T03:26:59;17.70;99.90
2873;DHT22;1444;49.166;7.312;2023-07-16T03:44:11;17.30;99.90
2873;DHT22;1444;49.166;7.312;2023-07-16T03:49:08;17.20;99.90
2873;DHT22;1444;49.166;7.312;2023-07-16T04:21:02;17.20;99.90
2873;DHT22;1444;49.166;7.312;2023-07-16T04:23:30;17.10;99.90
2873;DHT22;1444;49.166;7.312;2023-07-16T04:25:57;17.10;99.90
2873;DHT22;1444;49.166;7.312;2023-07-16T04:35:45;17.30;99.90
2873;DHT22;1444;49.166;7.312;2023-07-16T04:38:12;17.30;99.90
2873;DHT22;1444;49.166;7.312;2023-07-16T04:40:41;14.50;99.90
2873;DHT22;1444;49.166;7.312;2023-07-16T04:48:04;17.20;99.90
2873;DHT22;1444;49.166;7.312;2023-07-16T04:57:54;17.30;99.90
2873;DHT22;1444;49.166;7.312;2023-07-16T05:05:16;17.40;99.90
2873;DHT22;1444;49.166;7.312;2023-07-16T05:07:43;17.30;99.90
2873;DHT22;1444;49.166;7.312;2023-07-16T05:15:08;17.50;99.90
2873;DHT22;1444;49.166;7.312;2023-07-16T05:17:35;17.50;99.90
2873;DHT22;1444;49.166;7.312;2023-07-16T05:27:23;17.60;99.90
2873;DHT22;1444;49.166;7.312;2023-07-16T05:32:19;17.70;99.90
2873;DHT22;1444;49.166;7.312;2023-07-16T05:34:46;17.80;99.90
2873;DHT22;1444;49.166;7.312;2023-07-16T05:39:40;17.90;99.90
2873;DHT22;1444;49.166;7.312;2023-07-16T05:49:30;18.00;99.90
2873;DHT22;1444;49.166;7.312;2023-07-16T05:54:24;18.10;99.90
2873;DHT22;1444;49.166;7.312;2023-07-16T06:01:46;18.40;99.90
2873;DHT22;1444;49.166;7.312;2023-07-16T06:06:41;18.40;99.90
2873;DHT22;1444;49.166;7.312;2023-07-16T06:09:08;18.40;99.90
2873;DHT22;1444;49.166;7.312;2023-07-16T06:11:35;18.40;99.90
2873;DHT22;1444;49.166;7.312;2023-07-16T06:23:54;18.60;99.90
2873;DHT22;1444;49.166;7.312;2023-07-16T06:38:39;18.80;99.90
2873;DHT22;1444;49.166;7.312;2023-07-16T06:41:07;18.90;99.90
2873;DHT22;1444;49.166;7.312;2023-07-16T06:53:23;19.20;99.90
2873;DHT22;1444;49.166;7.312;2023-07-16T07:15:32;18.80;99.90
2873;DHT22;1444;49.166;7.312;2023-07-16T07:17:59;19.60;99.90
2873;DHT22;1444;49.166;7.312;2023-07-16T07:22:53;19.90;99.90
2873;DHT22;1444;49.166;7.312;2023-07-16T07:25:19;19.90;99.90
2873;DHT22;1444;49.166;7.312;2023-07-16T07:27:46;20.00;99.90
2873;DHT22;1444;49.166;7.312;2023-07-16T07:32:42;20.20;99.90
2873;DHT22;1444;49.166;7.312;2023-07-16T07:35:09;20.10;99.90
2873;DHT22;1444;49.166;7.312;2023-07-16T07:37:35;20.20;99.90
2873;DHT22;1444;49.166;7.312;2023-07-16T07:40:03;20.30;99.20
2873;DHT22;1444;49.166;7.312;2023-07-16T07:42:30;20.20;99.90
2873;DHT22;1444;49.166;7.312;2023-07-16T07:44:57;20.20;99.90
2873;DHT22;1444;49.166;7.312;2023-07-16T07:47:24;20.30;99.90
2873;DHT22;1444;49.166;7.312;2023-07-16T07:49:52;20.50;99.90
2873;DHT22;1444;49.166;7.312;2023-07-16T07:52:19;20.60;99.60
2873;DHT22;1444;49.166;7.312;2023-07-16T07:57:14;20.50;99.90
2873;DHT22;1444;49.166;7.312;2023-07-16T07:59:41;20.60;99.90
2873;DHT22;1444;49.166;7.312;2023-07-16T08:02:08;20.60;99.90
2873;DHT22;1444;49.166;7.312;2023-07-16T08:04:35;20.80;99.90
2873;DHT22;1444;49.166;7.312;2023-07-16T08:07:03;20.90;99.80
2873;DHT22;1444;49.166;7.312;2023-07-16T08:09:30;20.80;98.60
2873;DHT22;1444;49.166;7.312;2023-07-16T08:11:57;20.90;99.30
2873;DHT22;1444;49.166;7.312;2023-07-16T08:14:24;20.90;99.90
2873;DHT22;1444;49.166;7.312;2023-07-16T08:21:45;21.00;97.20
2873;DHT22;1444;49.166;7.312;2023-07-16T08:24:14;21.10;97.40
2873;DHT22;1444;49.166;7.312;2023-07-16T08:29:08;21.50;97.00
2873;DHT22;1444;49.166;7.312;2023-07-16T08:31:35;21.40;96.60
2873;DHT22;1444;49.166;7.312;2023-07-16T08:34:01;21.40;95.70
2873;DHT22;1444;49.166;7.312;2023-07-16T08:36:28;21.70;97.60
2873;DHT22;1444;49.166;7.312;2023-07-16T08:38:55;21.70;96.40
2873;DHT22;1444;49.166;7.312;2023-07-16T08:41:23;21.90;96.60
2873;DHT22;1444;49.166;7.312;2023-07-16T08:44:25;20.20;96.30
2873;DHT22;1444;49.166;7.312;2023-07-16T08:46:53;22.30;95.40
2873;DHT22;1444;49.166;7.312;2023-07-16T08:49:22;22.20;93.40
2873;DHT22;1444;49.166;7.312;2023-07-16T08:51:49;25.20;94.80
2873;DHT22;1444;49.166;7.312;2023-07-16T08:56:48;21.70;94.80
2873;DHT22;1444;49.166;7.312;2023-07-16T08:59:14;21.60;95.30
2873;DHT22;1444;49.166;7.312;2023-07-16T09:01:42;21.70;95.10
2873;DHT22;1444;49.166;7.312;2023-07-16T09:04:09;21.70;95.60
2873;DHT22;1444;49.166;7.312;2023-07-16T09:06:36;21.60;95.20
2873;DHT22;1444;49.166;7.312;2023-07-16T09:09:03;21.50;95.60
2873;DHT22;1444;49.166;7.312;2023-07-16T09:11:30;21.80;94.90
2873;DHT22;1444;49.166;7.312;2023-07-16T09:14:01;21.90;95.70
2873;DHT22;1444;49.166;7.312;2023-07-16T09:16:32;21.90;94.50
2873;DHT22;1444;49.166;7.312;2023-07-16T09:19:05;21.90;94.50
2873;DHT22;1444;49.166;7.312;2023-07-16T09:21:32;21.90;94.90
2873;DHT22;1444;49.166;7.312;2023-07-16T09:24:00;21.90;94.80
2873;DHT22;1444;49.166;7.312;2023-07-16T09:26:32;22.00;94.60
2873;DHT22;1444;49.166;7.312;2023-07-16T09:29:01;22.10;94.60
2873;DHT22;1444;49.166;7.312;2023-07-16T09:31:31;22.20;95.30
2873;DHT22;1444;49.166;7.312;2023-07-16T09:33:58;22.10;94.00
2873;DHT22;1444;49.166;7.312;2023-07-16T09:36:25;22.40;95.50
2873;DHT22;1444;49.166;7.312;2023-07-16T09:38:53;22.80;95.20
2873;DHT22;1444;49.166;7.312;2023-07-16T09:41:20;22.80;94.60
2873;DHT22;1444;49.166;7.312;2023-07-16T09:43:48;22.30;93.80
2873;DHT22;1444;49.166;7.312;2023-07-16T09:46:16;22.40;94.50
2873;DHT22;1444;49.166;7.312;2023-07-16T09:48:43;22.40;93.60
2873;DHT22;1444;49.166;7.312;2023-07-16T09:51:11;22.50;94.10
2873;DHT22;1444;49.166;7.312;2023-07-16T09:53:41;22.60;95.10
2873;DHT22;1444;49.166;7.312;2023-07-16T09:56:10;22.40;93.70
2873;DHT22;1444;49.166;7.312;2023-07-16T09:58:39;22.50;92.20
2873;DHT22;1444;49.166;7.312;2023-07-16T10:01:06;22.40;93.00
2873;DHT22;1444;49.166;7.312;2023-07-16T10:03:35;22.20;92.70
2873;DHT22;1444;49.166;7.312;2023-07-16T10:06:06;22.20;93.40
2873;DHT22;1444;49.166;7.312;2023-07-16T10:08:34;22.10;93.00
2873;DHT22;1444;49.166;7.312;2023-07-16T10:11:01;22.20;92.60
2873;DHT22;1444;49.166;7.312;2023-07-16T10:13:28;22.20;92.50
2873;DHT22;1444;49.166;7.312;2023-07-16T10:15:56;22.30;92.70
2873;DHT22;1444;49.166;7.312;2023-07-16T10:18:25;22.20;93.30
2873;DHT22;1444;49.166;7.312;2023-07-16T10:20:59;22.20;92.30
2873;DHT22;1444;49.166;7.312;2023-07-16T10:23:37;22.40;92.50
2873;DHT22;1444;49.166;7.312;2023-07-16T10:26:05;22.50;92.10
2873;DHT22;1444;49.166;7.312;2023-07-16T10:28:32;22.80;92.10
2873;DHT22;1444;49.166;7.312;2023-07-16T10:30:59;23.00;91.90
2873;DHT22;1444;49.166;7.312;2023-07-16T10:33:26;22.80;90.90
2873;DHT22;1444;49.166;7.312;2023-07-16T10:35:56;22.90;91.40
2873;DHT22;1444;49.166;7.312;2023-07-16T10:38:23;22.90;91.60
2873;DHT22;1444;49.166;7.312;2023-07-16T10:40:50;23.00;91.80
2873;DHT22;1444;49.166;7.312;2023-07-16T10:43:18;23.10;90.60
2873;DHT22;1444;49.166;7.312;2023-07-16T10:45:45;22.90;90.00
2873;DHT22;1444;49.166;7.312;2023-07-16T10:48:12;21.70;90.10
2873;DHT22;1444;49.166;7.312;2023-07-16T10:50:40;23.20;91.60
2873;DHT22;1444;49.166;7.312;2023-07-16T10:53:09;23.20;90.90
2873;DHT22;1444;49.166;7.312;2023-07-16T10:55:37;23.30;90.60
2873;DHT22;1444;49.166;7.312;2023-07-16T10:58:05;23.30;90.90
2873;DHT22;1444;49.166;7.312;2023-07-16T11:00:36;23.50;90.00
2873;DHT22;1444;49.166;7.312;2023-07-16T11:03:04;23.60;90.60
2873;DHT22;1444;49.166;7.312;2023-07-16T11:05:31;23.70;88.70
2873;DHT22;1444;49.166;7.312;2023-07-16T11:07:58;24.00;90.50
2873;DHT22;1444;49.166;7.312;2023-07-16T11:10:28;24.30;85.60
2873;DHT22;1444;49.166;7.312;2023-07-16T11:12:55;24.30;84.30
2873;DHT22;1444;49.166;7.312;2023-07-16T11:15:31;24.20;84.60
2873;DHT22;1444;49.166;7.312;2023-07-16T11:17:58;24.00;88.00
2873;DHT22;1444;49.166;7.312;2023-07-16T11:20:25;23.90;87.80
2873;DHT22;1444;49.166;7.312;2023-07-16T11:22:52;23.90;86.50
2873;DHT22;1444;49.166;7.312;2023-07-16T11:25:19;24.00;89.00
2873;DHT22;1444;49.166;7.312;2023-07-16T11:27:49;23.90;86.30
2873;DHT22;1444;49.166;7.312;2023-07-16T11:30:22;24.00;86.90
2873;DHT22;1444;49.166;7.312;2023-07-16T11:32:50;23.80;86.30
2873;DHT22;1444;49.166;7.312;2023-07-16T11:35:18;23.80;84.70
2873;DHT22;1444;49.166;7.312;2023-07-16T11:37:46;23.80;85.80
2873;DHT22;1444;49.166;7.312;2023-07-16T11:40:16;23.90;89.90
2873;DHT22;1444;49.166;7.312;2023-07-16T11:42:43;23.90;89.30
2873;DHT22;1444;49.166;7.312;2023-07-16T11:45:20;24.00;89.60
2873;DHT22;1444;49.166;7.312;2023-07-16T11:47:48;24.10;87.30
2873;DHT22;1444;49.166;7.312;2023-07-16T11:50:16;24.70;89.90
2873;DHT22;1444;49.166;7.312;2023-07-16T11:52:42;24.40;86.80
2873;DHT22;1444;49.166;7.312;2023-07-16T11:55:09;24.50;89.50
2873;DHT22;1444;49.166;7.312;2023-07-16T11:57:36;24.50;86.60
2873;DHT22;1444;49.166;7.312;2023-07-16T12:00:04;24.50;86.30
2873;DHT22;1444;49.166;7.312;2023-07-16T12:02:33;24.70;87.60
2873;DHT22;1444;49.166;7.312;2023-07-16T12:05:00;24.70;84.00
2873;DHT22;1444;49.166;7.312;2023-07-16T12:07:31;24.80;85.40
2873;DHT22;1444;49.166;7.312;2023-07-16T12:09:59;25.30;85.60
2873;DHT22;1444;49.166;7.312;2023-07-16T12:12:26;25.30;85.10
2873;DHT22;1444;49.166;7.312;2023-07-16T12:14:52;25.40;87.20
2873;DHT22;1444;49.166;7.312;2023-07-16T12:17:19;25.30;86.20
2873;DHT22;1444;49.166;7.312;2023-07-16T12:19:48;24.90;83.70
2873;DHT22;1444;49.166;7.312;2023-07-16T12:22:17;24.90;85.00
2873;DHT22;1444;49.166;7.312;2023-07-16T12:24:44;25.10;83.00
2873;DHT22;1444;49.166;7.312;2023-07-16T12:27:11;24.10;83.70
2873;DHT22;1444;49.166;7.312;2023-07-16T12:29:38;24.90;80.40
2873;DHT22;1444;49.166;7.312;2023-07-16T12:32:06;25.10;84.00
2873;DHT22;1444;49.166;7.312;2023-07-16T12:34:33;25.10;80.10
2873;DHT22;1444;49.166;7.312;2023-07-16T12:37:02;25.00;78.10
2873;DHT22;1444;49.166;7.312;2023-07-16T12:39:29;25.10;80.80
2873;DHT22;1444;49.166;7.312;2023-07-16T12:41:57;25.10;79.60
2873;DHT22;1444;49.166;7.312;2023-07-16T12:44:24;25.50;84.50
2873;DHT22;1444;49.166;7.312;2023-07-16T12:46:52;25.30;78.00
2873;DHT22;1444;49.166;7.312;2023-07-16T12:49:19;25.30;79.90
2873;DHT22;1444;49.166;7.312;2023-07-16T12:51:46;25.50;81.70
2873;DHT22;1444;49.166;7.312;2023-07-16T12:54:14;25.50;83.40
2873;DHT22;1444;49.166;7.312;2023-07-16T12:56:41;25.60;80.40
2873;DHT22;1444;49.166;7.312;2023-07-16T12:59:08;25.40;77.60
2873;DHT22;1444;49.166;7.312;2023-07-16T13:01:35;25.30;80.10
2873;DHT22;1444;49.166;7.312;2023-07-16T13:04:01;25.60;79.70
2873;DHT22;1444;49.166;7.312;2023-07-16T13:06:28;25.60;76.40
2873;DHT22;1444;49.166;7.312;2023-07-16T13:08:55;25.60;78.50
2873;DHT22;1444;49.166;7.312;2023-07-16T13:11:24;25.90;76.60
2873;DHT22;1444;49.166;7.312;2023-07-16T13:13:51;26.10;77.00
2873;DHT22;1444;49.166;7.312;2023-07-16T13:16:18;26.30;78.60
2873;DHT22;1444;49.166;7.312;2023-07-16T13:18:45;25.80;77.80
2873;DHT22;1444;49.166;7.312;2023-07-16T13:21:12;26.00;79.20
2873;DHT22;1444;49.166;7.312;2023-07-16T13:23:38;26.00;77.30
2873;DHT22;1444;49.166;7.312;2023-07-16T13:26:05;25.90;75.90
2873;DHT22;1444;49.166;7.312;2023-07-16T13:28:33;25.70;75.50
2873;DHT22;1444;49.166;7.312;2023-07-16T13:31:00;25.80;77.30
2873;DHT22;1444;49.166;7.312;2023-07-16T13:33:27;25.80;78.90
2873;DHT22;1444;49.166;7.312;2023-07-16T13:35:54;25.70;77.30
2873;DHT22;1444;49.166;7.312;2023-07-16T13:38:22;25.80;76.80
2873;DHT22;1444;49.166;7.312;2023-07-16T13:40:49;26.00;73.30
2873;DHT22;1444;49.166;7.312;2023-07-16T13:43:16;25.90;74.60
2873;DHT22;1444;49.166;7.312;2023-07-16T13:45:44;25.90;75.60
2873;DHT22;1444;49.166;7.312;2023-07-16T13:48:11;25.90;75.50
2873;DHT22;1444;49.166;7.312;2023-07-16T13:50:38;26.20;78.00
2873;DHT22;1444;49.166;7.312;2023-07-16T13:53:04;25.90;75.00
2873;DHT22;1444;49.166;7.312;2023-07-16T13:55:31;26.10;74.60
2873;DHT22;1444;49.166;7.312;2023-07-16T13:57:58;26.10;75.10
2873;DHT22;1444;49.166;7.312;2023-07-16T14:00:25;26.40;74.40
2873;DHT22;1444;49.166;7.312;2023-07-16T14:02:53;26.10;71.60
2873;DHT22;1444;49.166;7.312;2023-07-16T14:05:20;26.00;72.70
2873;DHT22;1444;49.166;7.312;2023-07-16T14:07:48;26.10;74.60
2873;DHT22;1444;49.166;7.312;2023-07-16T14:10:16;26.30;72.70
2873;DHT22;1444;49.166;7.312;2023-07-16T14:12:43;26.70;72.80
2873;DHT22;1444;49.166;7.312;2023-07-16T14:15:10;26.70;73.80
2873;DHT22;1444;49.166;7.312;2023-07-16T14:17:37;26.40;74.10
2873;DHT22;1444;49.166;7.312;2023-07-16T14:20:06;26.10;76.90
2873;DHT22;1444;49.166;7.312;2023-07-16T14:22:33;26.10;73.40
2873;DHT22;1444;49.166;7.312;2023-07-16T14:25:00;26.10;73.20
2873;DHT22;1444;49.166;7.312;2023-07-16T14:27:28;26.10;72.40
2873;DHT22;1444;49.166;7.312;2023-07-16T14:29:54;26.20;73.10
2873;DHT22;1444;49.166;7.312;2023-07-16T14:32:21;26.20;73.70
2873;DHT22;1444;49.166;7.312;2023-07-16T14:34:48;25.90;70.60
2873;DHT22;1444;49.166;7.312;2023-07-16T14:37:17;26.00;73.10
2873;DHT22;1444;49.166;7.312;2023-07-16T14:39:44;26.20;73.90
2873;DHT22;1444;49.166;7.312;2023-07-16T14:42:11;26.20;72.90
2873;DHT22;1444;49.166;7.312;2023-07-16T14:44:37;26.20;73.60
2873;DHT22;1444;49.166;7.312;2023-07-16T14:47:04;26.00;71.60
2873;DHT22;1444;49.166;7.312;2023-07-16T14:49:32;26.00;74.50
2873;DHT22;1444;49.166;7.312;2023-07-16T14:51:58;25.70;72.10
2873;DHT22;1444;49.166;7.312;2023-07-16T14:54:27;25.60;75.40
2873;DHT22;1444;49.166;7.312;2023-07-16T14:56:53;25.50;71.80
2873;DHT22;1444;49.166;7.312;2023-07-16T14:59:20;25.50;71.00
2873;DHT22;1444;49.166;7.312;2023-07-16T15:01:47;25.70;75.50
2873;DHT22;1444;49.166;7.312;2023-07-16T15:04:14;25.70;72.60
2873;DHT22;1444;49.166;7.312;2023-07-16T15:06:41;25.90;72.40
2873;DHT22;1444;49.166;7.312;2023-07-16T15:09:07;25.70;72.40
2873;DHT22;1444;49.166;7.312;2023-07-16T15:11:36;25.60;73.50
2873;DHT22;1444;49.166;7.312;2023-07-16T15:14:03;25.30;73.10
2873;DHT22;1444;49.166;7.312;2023-07-16T15:16:30;25.30;72.70
2873;DHT22;1444;49.166;7.312;2023-07-16T15:18:56;25.00;73.00
2873;DHT22;1444;49.166;7.312;2023-07-16T15:21:23;25.10;75.30
2873;DHT22;1444;49.166;7.312;2023-07-16T15:23:49;25.40;74.10
2873;DHT22;1444;49.166;7.312;2023-07-16T15:26:16;25.70;73.10
2873;DHT22;1444;49.166;7.312;2023-07-16T15:28:44;25.80;73.30
2873;DHT22;1444;49.166;7.312;2023-07-16T15:31:11;26.00;73.00
2873;DHT22;1444;49.166;7.312;2023-07-16T15:33:38;26.10;71.90
2873;DHT22;1444;49.166;7.312;2023-07-16T15:36:05;26.40;72.20
2873;DHT22;1444;49.166;7.312;2023-07-16T15:38:32;26.60;73.10
2873;DHT22;1444;49.166;7.312;2023-07-16T15:40:59;26.70;71.80
2873;DHT22;1444;49.166;7.312;2023-07-16T15:43:26;26.70;69.50
2873;DHT22;1444;49.166;7.312;2023-07-16T15:45:54;26.70;70.80
2873;DHT22;1444;49.166;7.312;2023-07-16T15:48:21;26.40;70.40
2873;DHT22;1444;49.166;7.312;2023-07-16T15:50:47;26.40;71.30
2873;DHT22;1444;49.166;7.312;2023-07-16T15:53:14;26.10;70.40
2873;DHT22;1444;49.166;7.312;2023-07-16T15:55:41;26.10;73.70
2873;DHT22;1444;49.166;7.312;2023-07-16T15:58:08;26.00;71.60
2873;DHT22;1444;49.166;7.312;2023-07-16T16:00:35;25.90;73.00
2873;DHT22;1444;49.166;7.312;2023-07-16T16:03:03;26.10;72.50
2873;DHT22;1444;49.166;7.312;2023-07-16T16:05:30;26.30;71.10
2873;DHT22;1444;49.166;7.312;2023-07-16T16:08:15;26.50;73.80
2873;DHT22;1444;49.166;7.312;2023-07-16T16:10:44;26.50;72.80
2873;DHT22;1444;49.166;7.312;2023-07-16T16:13:13;26.30;70.70
2873;DHT22;1444;49.166;7.312;2023-07-16T16:15:39;26.20;71.00
2873;DHT22;1444;49.166;7.312;2023-07-16T16:18:08;26.20;75.00
2873;DHT22;1444;49.166;7.312;2023-07-16T16:20:36;26.40;71.50
2873;DHT22;1444;49.166;7.312;2023-07-16T16:23:03;26.40;71.60
2873;DHT22;1444;49.166;7.312;2023-07-16T16:25:31;26.30;69.80
2873;DHT22;1444;49.166;7.312;2023-07-16T16:27:59;26.30;71.50
2873;DHT22;1444;49.166;7.312;2023-07-16T16:30:27;26.00;71.40
2873;DHT22;1444;49.166;7.312;2023-07-16T16:32:55;26.00;73.40
2873;DHT22;1444;49.166;7.312;2023-07-16T16:35:26;25.80;70.40
2873;DHT22;1444;49.166;7.312;2023-07-16T16:37:53;25.80;71.30
2873;DHT22;1444;49.166;7.312;2023-07-16T16:40:20;25.70;71.90
2873;DHT22;1444;49.166;7.312;2023-07-16T16:42:47;25.50;72.60
2873;DHT22;1444;49.166;7.312;2023-07-16T16:45:14;25.40;73.10
2873;DHT22;1444;49.166;7.312;2023-07-16T16:47:41;25.20;73.10
2873;DHT22;1444;49.166;7.312;2023-07-16T16:50:08;25.10;72.80
2873;DHT22;1444;49.166;7.312;2023-07-16T16:52:37;25.00;74.00
2873;DHT22;1444;49.166;7.312;2023-07-16T16:55:04;25.00;76.60
2873;DHT22;1444;49.166;7.312;2023-07-16T16:57:32;25.10;73.80
2873;DHT22;1444;49.166;7.312;2023-07-16T16:59:59;25.00;73.20
2873;DHT22;1444;49.166;7.312;2023-07-16T17:02:26;25.10;76.20
2873;DHT22;1444;49.166;7.312;2023-07-16T17:04:53;24.90;72.90
2873;DHT22;1444;49.166;7.312;2023-07-16T17:07:21;24.80;73.00
2873;DHT22;1444;49.166;7.312;2023-07-16T17:09:49;24.90;73.60
2873;DHT22;1444;49.166;7.312;2023-07-16T17:12:16;25.00;75.60
2873;DHT22;1444;49.166;7.312;2023-07-16T17:14:43;24.90;73.80
2873;DHT22;1444;49.166;7.312;2023-07-16T17:17:11;25.00;75.00
2873;DHT22;1444;49.166;7.312;2023-07-16T17:19:41;25.00;74.50
2873;DHT22;1444;49.166;7.312;2023-07-16T17:22:08;24.90;73.50
2873;DHT22;1444;49.166;7.312;2023-07-16T17:24:35;24.90;75.90
2873;DHT22;1444;49.166;7.312;2023-07-16T17:27:04;24.90;74.70
2873;DHT22;1444;49.166;7.312;2023-07-16T17:29:31;24.90;75.90
2873;DHT22;1444;49.166;7.312;2023-07-16T17:31:58;24.90;73.80
2873;DHT22;1444;49.166;7.312;2023-07-16T17:34:25;24.90;74.80
2873;DHT22;1444;49.166;7.312;2023-07-16T17:36:52;24.80;74.90
2873;DHT22;1444;49.166;7.312;2023-07-16T17:39:19;24.80;76.90
2873;DHT22;1444;49.166;7.312;2023-07-16T17:41:46;24.70;76.70
2873;DHT22;1444;49.166;7.312;2023-07-16T17:44:14;24.70;77.50
2873;DHT22;1444;49.166;7.312;2023-07-16T17:46:41;24.60;77.00
2873;DHT22;1444;49.166;7.312;2023-07-16T17:49:08;24.60;76.40
2873;DHT22;1444;49.166;7.312;2023-07-16T17:51:35;24.50;74.80
2873;DHT22;1444;49.166;7.312;2023-07-16T17:54:02;24.40;75.50
2873;DHT22;1444;49.166;7.312;2023-07-16T17:56:29;24.40;77.70
2873;DHT22;1444;49.166;7.312;2023-07-16T17:58:56;24.30;77.10
2873;DHT22;1444;49.166;7.312;2023-07-16T18:01:24;24.30;78.00
2873;DHT22;1444;49.166;7.312;2023-07-16T18:03:56;24.20;77.90
2873;DHT22;1444;49.166;7.312;2023-07-16T18:06:23;24.20;76.90
2873;DHT22;1444;49.166;7.312;2023-07-16T18:08:51;24.20;77.80
2873;DHT22;1444;49.166;7.312;2023-07-16T18:11:18;24.20;79.00
2873;DHT22;1444;49.166;7.312;2023-07-16T18:13:45;24.20;77.90
2873;DHT22;1444;49.166;7.312;2023-07-16T18:16:12;24.20;78.40
2873;DHT22;1444;49.166;7.312;2023-07-16T18:18:40;24.30;79.50
2873;DHT22;1444;49.166;7.312;2023-07-16T18:21:07;24.40;81.30
2873;DHT22;1444;49.166;7.312;2023-07-16T18:23:34;24.40;80.50
2873;DHT22;1444;49.166;7.312;2023-07-16T18:26:01;24.40;80.70
2873;DHT22;1444;49.166;7.312;2023-07-16T18:28:28;24.40;81.40
2873;DHT22;1444;49.166;7.312;2023-07-16T18:30:55;24.30;82.50
2873;DHT22;1444;49.166;7.312;2023-07-16T18:33:22;24.20;82.60
2873;DHT22;1444;49.166;7.312;2023-07-16T18:35:53;24.20;83.20
2873;DHT22;1444;49.166;7.312;2023-07-16T18:38:21;24.10;85.90
2873;DHT22;1444;49.166;7.312;2023-07-16T18:40:48;24.00;84.50
2873;DHT22;1444;49.166;7.312;2023-07-16T18:43:15;24.00;85.70
2873;DHT22;1444;49.166;7.312;2023-07-16T18:45:42;24.00;87.70
2873;DHT22;1444;49.166;7.312;2023-07-16T18:48:08;24.00;87.20
2873;DHT22;1444;49.166;7.312;2023-07-16T18:50:36;24.00;85.40
2873;DHT22;1444;49.166;7.312;2023-07-16T18:53:05;24.00;87.20
2873;DHT22;1444;49.166;7.312;2023-07-16T18:55:32;24.00;88.00
2873;DHT22;1444;49.166;7.312;2023-07-16T18:58:00;24.00;88.60
2873;DHT22;1444;49.166;7.312;2023-07-16T19:00:27;24.00;87.80
2873;DHT22;1444;49.166;7.312;2023-07-16T19:02:54;24.00;89.50
2873;DHT22;1444;49.166;7.312;2023-07-16T19:05:22;23.70;88.40
2873;DHT22;1444;49.166;7.312;2023-07-16T19:07:49;24.00;89.70
2873;DHT22;1444;49.166;7.312;2023-07-16T19:10:17;23.90;89.30
2873;DHT22;1444;49.166;7.312;2023-07-16T19:12:45;23.90;90.00
2873;DHT22;1444;49.166;7.312;2023-07-16T19:15:12;23.90;90.50
2873;DHT22;1444;49.166;7.312;2023-07-16T19:17:39;23.80;90.20
2873;DHT22;1444;49.166;7.312;2023-07-16T19:20:07;23.70;90.60
2873;DHT22;1444;49.166;7.312;2023-07-16T19:22:35;23.70;90.90
2873;DHT22;1444;49.166;7.312;2023-07-16T19:25:06;23.50;91.60
2873;DHT22;1444;49.166;7.312;2023-07-16T19:27:35;23.50;91.70
2873;DHT22;1444;49.166;7.312;2023-07-16T19:30:02;23.20;91.90
2873;DHT22;1444;49.166;7.312;2023-07-16T19:32:30;23.20;92.10
2873;DHT22;1444;49.166;7.312;2023-07-16T19:34:57;23.10;90.90
2873;DHT22;1444;49.166;7.312;2023-07-16T19:37:25;23.10;91.10
2873;DHT22;1444;49.166;7.312;2023-07-16T19:39:54;23.00;90.80
2873;DHT22;1444;49.166;7.312;2023-07-16T19:42:21;22.90;92.00
2873;DHT22;1444;49.166;7.312;2023-07-16T19:44:51;22.90;92.30
2873;DHT22;1444;49.166;7.312;2023-07-16T19:47:19;22.90;92.30
2873;DHT22;1444;49.166;7.312;2023-07-16T19:49:46;22.80;92.50
2873;DHT22;1444;49.166;7.312;2023-07-16T19:52:14;22.80;92.60
2873;DHT22;1444;49.166;7.312;2023-07-16T19:54:41;22.70;92.80
2873;DHT22;1444;49.166;7.312;2023-07-16T19:57:08;22.60;93.40
2873;DHT22;1444;49.166;7.312;2023-07-16T19:59:36;22.60;93.60
2873;DHT22;1444;49.166;7.312;2023-07-16T20:02:04;22.50;92.60
2873;DHT22;1444;49.166;7.312;2023-07-16T20:04:31;22.00;92.70
2873;DHT22;1444;49.166;7.312;2023-07-16T20:06:58;22.60;93.00
2873;DHT22;1444;49.166;7.312;2023-07-16T20:09:25;22.60;93.40
2873;DHT22;1444;49.166;7.312;2023-07-16T20:11:52;22.60;93.80
2873;DHT22;1444;49.166;7.312;2023-07-16T20:14:19;22.60;94.00
2873;DHT22;1444;49.166;7.312;2023-07-16T20:16:46;22.50;94.40
2873;DHT22;1444;49.166;7.312;2023-07-16T20:19:14;22.40;94.80
2873;DHT22;1444;49.166;7.312;2023-07-16T20:21:41;22.40;94.60
2873;DHT22;1444;49.166;7.312;2023-07-16T20:24:09;22.20;94.60
2873;DHT22;1444;49.166;7.312;2023-07-16T20:26:36;20.70;94.40
2873;DHT22;1444;49.166;7.312;2023-07-16T20:29:03;22.10;96.00
2873;DHT22;1444;49.166;7.312;2023-07-16T20:31:30;21.90;95.80
2873;DHT22;1444;49.166;7.312;2023-07-16T20:33:57;21.90;96.00
2873;DHT22;1444;49.166;7.312;2023-07-16T20:36:26;21.90;95.50
2873;DHT22;1444;49.166;7.312;2023-07-16T20:38:53;21.90;96.00
2873;DHT22;1444;49.166;7.312;2023-07-16T20:41:20;21.90;95.80
2873;DHT22;1444;49.166;7.312;2023-07-16T20:43:47;21.90;95.50
2873;DHT22;1444;49.166;7.312;2023-07-16T20:46:15;22.00;95.90
2873;DHT22;1444;49.166;7.312;2023-07-16T20:48:42;21.90;96.50
2873;DHT22;1444;49.166;7.312;2023-07-16T20:51:09;21.90;96.20
2873;DHT22;1444;49.166;7.312;2023-07-16T20:53:40;21.90;96.10
2873;DHT22;1444;49.166;7.312;2023-07-16T20:56:07;21.90;96.60
2873;DHT22;1444;49.166;7.312;2023-07-16T20:58:34;21.80;96.00
2873;DHT22;1444;49.166;7.312;2023-07-16T21:01:00;21.80;96.30
2873;DHT22;1444;49.166;7.312;2023-07-16T21:03:29;21.70;96.10
2873;DHT22;1444;49.166;7.312;2023-07-16T21:05:56;21.70;96.50
2873;DHT22;1444;49.166;7.312;2023-07-16T21:08:23;21.60;96.40
2873;DHT22;1444;49.166;7.312;2023-07-16T21:10:53;21.60;96.60
2873;DHT22;1444;49.166;7.312;2023-07-16T21:13:20;21.50;96.20
2873;DHT22;1444;49.166;7.312;2023-07-16T21:15:47;21.50;96.30
2873;DHT22;1444;49.166;7.312;2023-07-16T21:18:15;21.40;96.60
2873;DHT22;1444;49.166;7.312;2023-07-16T21:20:43;21.30;97.20
2873;DHT22;1444;49.166;7.312;2023-07-16T21:23:10;21.30;97.20
2873;DHT22;1444;49.166;7.312;2023-07-16T21:25:37;21.20;97.30
2873;DHT22;1444;49.166;7.312;2023-07-16T21:28:08;21.10;97.80